createdAt,value
2023-05-14T00:00:52.481Z,6.00
2023-05-14T00:03:19.320Z,3.47
2023-05-14T00:05:46.161Z,3.75
2023-05-14T00:10:39.644Z,3.10
2023-05-14T00:13:06.403Z,4.85
2023-05-14T00:15:34.316Z,4.10
2023-05-14T00:18:01.487Z,5.00
2023-05-14T00:20:28.472Z,3.50
2023-05-14T00:22:55.362Z,5.45
2023-05-14T00:25:22.072Z,3.78
2023-05-14T00:30:15.477Z,4.20
2023-05-14T00:32:42.227Z,5.30
2023-05-14T00:35:09.319Z,3.92
2023-05-14T00:37:36.947Z,6.60
2023-05-14T00:40:04.375Z,4.88
2023-05-14T00:42:31.115Z,3.55
2023-05-14T00:47:24.475Z,3.40
2023-05-14T00:49:51.207Z,3.83
2023-05-14T00:54:47.167Z,3.08
2023-05-14T00:57:14.066Z,3.25
2023-05-14T00:59:42.537Z,3.05
2023-05-14T01:02:09.303Z,5.40
2023-05-14T01:07:21.501Z,3.20
2023-05-14T01:10:02.498Z,3.75
2023-05-14T01:12:40.950Z,3.38
2023-05-14T01:15:12.473Z,3.55
2023-05-14T01:17:44.347Z,3.17
2023-05-14T01:20:11.787Z,3.63
2023-05-14T01:22:38.702Z,5.40
2023-05-14T01:25:06.911Z,4.18
2023-05-14T01:27:50.048Z,9.15
2023-05-14T01:30:25.139Z,4.55
2023-05-14T01:32:55.568Z,3.63
2023-05-14T01:35:27.999Z,2.88
2023-05-14T01:38:00.866Z,2.53
2023-05-14T01:40:28.185Z,3.63
2023-05-14T01:42:55.551Z,3.17
2023-05-14T01:45:23.327Z,2.55
2023-05-14T01:47:51.118Z,2.95
2023-05-14T01:50:18.437Z,4.10
2023-05-14T01:52:45.203Z,3.88
2023-05-14T01:55:12.001Z,4.03
2023-05-14T01:57:38.712Z,5.72
2023-05-14T02:02:32.819Z,5.05
2023-05-14T02:04:59.643Z,3.50
2023-05-14T02:09:53.007Z,3.08
2023-05-14T02:14:46.557Z,3.00
2023-05-14T02:17:15.866Z,4.78
2023-05-14T02:19:42.682Z,4.25
2023-05-14T02:22:09.577Z,5.22
2023-05-14T02:24:36.369Z,3.45
2023-05-14T02:27:03.395Z,3.92
2023-05-14T02:29:30.143Z,4.25
2023-05-14T02:34:24.866Z,3.28
2023-05-14T02:36:51.645Z,3.95
2023-05-14T02:39:18.421Z,3.95
2023-05-14T02:41:45.237Z,3.33
2023-05-14T02:44:12.053Z,3.97
2023-05-14T02:46:38.847Z,3.58
2023-05-14T02:49:06.842Z,2.95
2023-05-14T02:54:00.506Z,3.60
2023-05-14T02:56:27.229Z,3.47
2023-05-14T03:01:21.084Z,3.25
2023-05-14T03:03:48.706Z,3.55
2023-05-14T03:06:15.915Z,4.25
2023-05-14T03:08:42.780Z,4.68
2023-05-14T03:11:09.628Z,2.78
2023-05-14T03:13:36.307Z,3.03
2023-05-14T03:16:03.074Z,3.45
2023-05-14T03:20:57.700Z,4.47
2023-05-14T03:23:24.426Z,3.35
2023-05-14T03:28:17.821Z,4.35
2023-05-14T03:33:11.625Z,3.83
2023-05-14T03:35:38.379Z,2.65
2023-05-14T03:40:31.880Z,6.97
2023-05-14T03:42:58.686Z,3.80
2023-05-14T03:47:53.629Z,3.40
2023-05-14T03:50:20.477Z,3.75
2023-05-14T03:55:13.982Z,3.70
2023-05-14T03:57:40.825Z,5.43
2023-05-14T04:00:08.228Z,3.80
2023-05-14T04:02:34.997Z,3.03
2023-05-14T04:05:01.866Z,4.05
2023-05-14T04:07:28.599Z,4.70
2023-05-14T04:12:22.064Z,4.68
2023-05-14T04:17:15.651Z,4.25
2023-05-14T04:22:09.146Z,3.50
2023-05-14T04:24:35.925Z,5.45
2023-05-14T04:27:02.668Z,5.38
2023-05-14T04:31:56.396Z,3.20
2023-05-14T04:34:23.240Z,3.70
2023-05-14T04:36:50.057Z,5.07
2023-05-14T04:39:17.236Z,4.97
2023-05-14T04:41:44.017Z,4.30
2023-05-14T04:44:12.673Z,5.30
2023-05-14T04:46:39.537Z,3.67
2023-05-14T04:49:06.296Z,3.50
2023-05-14T04:53:59.725Z,4.07
2023-05-14T04:56:26.563Z,4.50
2023-05-14T04:58:53.371Z,7.13
2023-05-14T05:01:20.300Z,6.03
2023-05-14T05:03:47.152Z,6.05
2023-05-14T05:06:13.977Z,3.78
2023-05-14T05:08:41.451Z,5.63
2023-05-14T05:11:08.136Z,5.25
2023-05-14T05:16:01.541Z,8.10
2023-05-14T05:20:55.396Z,5.25
2023-05-14T05:23:22.109Z,5.07
2023-05-14T05:28:16.139Z,4.90
2023-05-14T05:30:45.091Z,3.95
2023-05-14T05:33:12.551Z,4.72
2023-05-14T05:35:39.319Z,9.52
2023-05-14T05:38:06.204Z,4.70
2023-05-14T05:40:33.118Z,6.40
2023-05-14T05:42:59.868Z,6.00
2023-05-14T05:47:53.295Z,5.32
2023-05-14T05:50:20.202Z,5.13
2023-05-14T05:52:47.180Z,6.35
2023-05-14T05:55:13.928Z,6.70
2023-05-14T06:00:17.053Z,3.83
2023-05-14T06:02:44.280Z,6.55
2023-05-14T06:05:11.545Z,6.43
2023-05-14T06:07:38.940Z,5.72
2023-05-14T06:10:06.540Z,9.45
2023-05-14T06:12:33.449Z,5.25
2023-05-14T06:15:00.198Z,4.85
2023-05-14T06:19:54.122Z,4.47
2023-05-14T06:22:20.970Z,6.35
2023-05-14T06:24:48.379Z,5.88
2023-05-14T06:27:15.276Z,7.80
2023-05-14T06:29:42.043Z,5.75
2023-05-14T06:34:35.968Z,8.02
2023-05-14T06:37:04.219Z,8.38
2023-05-14T06:39:31.315Z,6.47
2023-05-14T06:41:58.138Z,8.25
2023-05-14T06:44:24.913Z,7.15
2023-05-14T06:49:19.061Z,8.07
2023-05-14T06:51:45.970Z,7.00
2023-05-14T06:54:12.964Z,7.88
2023-05-14T06:56:40.099Z,6.88
2023-05-14T06:59:06.924Z,8.60
2023-05-14T07:01:33.743Z,6.57
2023-05-14T07:04:00.693Z,5.97
2023-05-14T07:06:27.523Z,7.20
2023-05-14T07:08:54.352Z,6.65
2023-05-14T07:11:22.243Z,6.35
2023-05-14T07:13:49.055Z,5.35
2023-05-14T07:18:42.559Z,5.00
2023-05-14T07:21:09.321Z,11.30
2023-05-14T07:26:07.727Z,6.38
2023-05-14T07:28:34.990Z,6.05
2023-05-14T07:31:02.304Z,5.93
2023-05-14T07:33:29.150Z,5.22
2023-05-14T07:35:56.050Z,6.80
2023-05-14T07:38:22.908Z,7.40
2023-05-14T07:40:49.665Z,5.82
2023-05-14T07:45:43.211Z,6.45
2023-05-14T07:48:10.080Z,6.10
2023-05-14T07:50:37.462Z,6.93
2023-05-14T07:53:04.213Z,7.75
2023-05-14T07:57:58.269Z,4.93
2023-05-14T08:02:52.269Z,5.85
2023-05-14T08:05:19.378Z,5.50
2023-05-14T08:10:13.368Z,5.22
2023-05-14T08:12:40.133Z,5.53
2023-05-14T08:17:34.746Z,6.03
2023-05-14T08:20:02.182Z,6.15
2023-05-14T08:22:29.226Z,5.55
2023-05-14T08:24:55.956Z,5.63
2023-05-14T08:29:49.723Z,7.03
2023-05-14T08:34:51.628Z,5.47
2023-05-14T08:37:22.302Z,7.03
2023-05-14T08:39:49.330Z,5.90
2023-05-14T08:42:20.692Z,5.70
2023-05-14T08:45:02.244Z,7.05
2023-05-14T08:47:30.654Z,6.53
2023-05-14T08:50:08.273Z,6.20
2023-05-14T08:52:35.529Z,8.20
2023-05-14T08:55:06.554Z,5.97
2023-05-14T08:57:34.303Z,7.15
2023-05-14T09:00:05.840Z,7.20
2023-05-14T09:02:33.164Z,6.78
2023-05-14T09:05:01.515Z,7.25
2023-05-14T09:07:28.451Z,6.10
2023-05-14T09:09:55.616Z,7.03
2023-05-14T09:12:22.808Z,5.20
2023-05-14T09:14:50.873Z,5.43
2023-05-14T09:17:18.730Z,8.15
2023-05-14T09:19:52.893Z,7.45
2023-05-14T09:22:20.273Z,6.85
2023-05-14T09:24:47.511Z,8.50
2023-05-14T09:27:25.307Z,6.80
2023-05-14T09:29:52.362Z,8.82
2023-05-14T09:32:20.587Z,5.53
2023-05-14T09:34:47.364Z,7.90
2023-05-14T09:39:40.751Z,6.95
2023-05-14T09:42:07.822Z,4.50
2023-05-14T09:44:36.362Z,6.55
2023-05-14T09:47:04.284Z,6.28
2023-05-14T09:49:31.392Z,8.60
2023-05-14T09:51:58.230Z,5.10
2023-05-14T09:54:27.372Z,5.35
2023-05-14T09:56:55.591Z,5.93
2023-05-14T09:59:22.713Z,6.57
2023-05-14T10:04:17.065Z,5.72
2023-05-14T10:06:48.208Z,5.65
2023-05-14T10:09:19.693Z,7.65
2023-05-14T10:11:50.175Z,4.97
2023-05-14T10:14:33.585Z,6.07
2023-05-14T10:17:02.797Z,6.05
2023-05-14T10:19:34.579Z,6.45
2023-05-14T10:22:05.553Z,5.50
2023-05-14T10:24:33.183Z,5.85
2023-05-14T10:27:00.299Z,8.93
2023-05-14T10:29:35.026Z,8.68
2023-05-14T10:32:07.144Z,8.95
2023-05-14T10:34:42.531Z,9.27
2023-05-14T10:37:24.540Z,7.70
2023-05-14T10:39:58.840Z,8.10
2023-05-14T10:42:37.496Z,8.65
2023-05-14T10:45:07.538Z,8.25
2023-05-14T10:47:37.102Z,11.52
2023-05-14T10:50:06.585Z,8.95
2023-05-14T10:52:35.101Z,8.40
2023-05-14T10:55:04.076Z,10.77
2023-05-14T10:57:32.544Z,9.55
2023-05-14T11:00:03.264Z,9.60
2023-05-14T11:02:38.202Z,9.35
2023-05-14T11:05:11.634Z,7.80
2023-05-14T11:07:39.906Z,8.63
2023-05-14T11:10:09.250Z,7.05
2023-05-14T11:12:38.203Z,6.80
2023-05-14T11:15:13.999Z,10.93
2023-05-14T11:17:42.283Z,7.15
2023-05-14T11:20:10.578Z,8.10
2023-05-14T11:22:38.838Z,8.27
2023-05-14T11:25:06.975Z,8.20
2023-05-14T11:27:38.806Z,7.68
2023-05-14T11:30:12.112Z,7.95
2023-05-14T11:32:39.475Z,7.35
2023-05-14T11:35:06.697Z,7.35
2023-05-14T11:37:33.492Z,10.48
2023-05-14T11:42:27.558Z,6.63
2023-05-14T11:47:22.351Z,7.75
2023-05-14T11:49:49.847Z,6.97
2023-05-14T11:52:19.659Z,7.57
2023-05-14T11:54:47.422Z,5.70
2023-05-14T11:57:17.065Z,8.32
2023-05-14T11:59:44.534Z,5.60
2023-05-14T12:02:17.007Z,5.05
2023-05-14T12:04:44.571Z,5.35
2023-05-14T12:07:14.827Z,6.60
2023-05-14T12:09:49.885Z,6.80
2023-05-14T12:12:23.074Z,7.32
2023-05-14T12:17:21.843Z,6.75
2023-05-14T12:19:51.222Z,4.43
2023-05-14T12:22:19.912Z,5.88
2023-05-14T12:25:03.565Z,7.13
2023-05-14T12:27:30.520Z,4.80
2023-05-14T12:30:19.954Z,7.03
2023-05-14T12:32:51.481Z,7.35
2023-05-14T12:35:18.936Z,5.28
2023-05-14T12:37:46.011Z,6.80
2023-05-14T12:40:13.064Z,7.65
2023-05-14T12:42:40.056Z,5.65
2023-05-14T12:45:08.530Z,5.50
2023-05-14T12:47:37.007Z,5.32
2023-05-14T12:50:04.890Z,5.30
2023-05-14T12:55:01.490Z,5.90
2023-05-14T12:57:29.724Z,5.10
2023-05-14T12:59:57.393Z,7.55
2023-05-14T13:02:24.171Z,5.47
2023-05-14T13:04:50.951Z,4.88
2023-05-14T13:07:17.753Z,5.30
2023-05-14T13:09:44.704Z,3.40
2023-05-14T13:12:11.502Z,3.70
2023-05-14T13:14:38.349Z,3.95
2023-05-14T13:17:05.965Z,5.25
2023-05-14T13:19:32.801Z,5.57
2023-05-14T13:24:28.591Z,3.83
2023-05-14T13:26:55.356Z,4.63
2023-05-14T13:29:25.190Z,3.70
2023-05-14T13:31:55.448Z,4.22
2023-05-14T13:34:22.221Z,4.25
2023-05-14T13:36:49.970Z,8.00
2023-05-14T13:39:16.900Z,4.65
2023-05-14T13:41:43.836Z,5.78
2023-05-14T13:44:10.566Z,4.82
2023-05-14T13:49:06.718Z,5.53
2023-05-14T13:51:33.533Z,5.97
2023-05-14T13:54:03.626Z,6.47
2023-05-14T13:56:33.257Z,4.20
2023-05-14T13:59:00.124Z,4.70
2023-05-14T14:01:27.857Z,4.82
2023-05-14T14:03:54.757Z,7.78
2023-05-14T14:06:21.476Z,6.50
2023-05-14T14:11:16.901Z,4.45
2023-05-14T14:13:46.346Z,6.18
2023-05-14T14:16:13.546Z,6.00
2023-05-14T14:18:40.427Z,5.95
2023-05-14T14:21:07.323Z,5.30
2023-05-14T14:23:34.153Z,5.55
2023-05-14T14:26:01.257Z,5.63
2023-05-14T14:28:28.072Z,4.55
2023-05-14T14:30:54.828Z,6.70
2023-05-14T14:33:21.595Z,6.50
2023-05-14T14:35:48.593Z,5.10
2023-05-14T14:38:17.795Z,4.88
2023-05-14T14:40:48.523Z,5.03
2023-05-14T14:43:15.393Z,4.38
2023-05-14T14:45:43.027Z,5.65
2023-05-14T14:48:39.062Z,5.95
2023-05-14T14:51:07.319Z,6.55
2023-05-14T14:53:34.780Z,5.57
2023-05-14T14:56:02.262Z,4.55
2023-05-14T14:58:29.259Z,5.20
2023-05-14T15:00:57.480Z,6.07
2023-05-14T15:03:25.437Z,5.78
2023-05-14T15:05:53.627Z,7.13
2023-05-14T15:08:24.328Z,5.10
2023-05-14T15:10:51.128Z,4.82
2023-05-14T15:13:18.167Z,5.18
2023-05-14T15:15:45.014Z,9.02
2023-05-14T15:18:11.919Z,5.57
2023-05-14T15:20:38.867Z,6.90
2023-05-14T15:23:06.202Z,7.57
2023-05-14T15:25:32.934Z,5.35
2023-05-14T15:30:26.386Z,6.65
2023-05-14T15:35:20.777Z,5.00
2023-05-14T15:37:47.563Z,5.22
2023-05-14T15:42:43.641Z,5.10
2023-05-14T15:45:14.220Z,4.20
2023-05-14T15:47:41.811Z,4.82
2023-05-14T15:50:09.163Z,5.50
2023-05-14T15:52:36.463Z,6.25
2023-05-14T15:55:04.449Z,5.10
2023-05-14T15:57:31.741Z,4.25
2023-05-14T15:59:58.499Z,4.38
2023-05-14T16:04:51.994Z,6.68
2023-05-14T16:09:45.546Z,4.32
2023-05-14T16:12:12.508Z,5.65
2023-05-14T16:14:41.825Z,4.63
2023-05-14T16:17:09.213Z,4.60
2023-05-14T16:19:35.993Z,4.65
2023-05-14T16:24:29.451Z,4.78
2023-05-14T16:29:23.029Z,5.10
2023-05-14T16:34:16.605Z,7.53
2023-05-14T16:39:11.458Z,4.60
2023-05-14T16:41:38.236Z,5.88
2023-05-14T16:46:32.250Z,7.60
2023-05-14T16:48:59.289Z,5.82
2023-05-14T16:51:26.062Z,6.55
2023-05-14T16:56:22.553Z,7.28
2023-05-14T16:58:49.440Z,6.88
2023-05-14T17:01:16.445Z,5.57
2023-05-14T17:03:44.714Z,6.90
2023-05-14T17:06:11.652Z,5.78
2023-05-14T17:08:38.492Z,7.30
2023-05-14T17:11:05.983Z,6.55
2023-05-14T17:13:33.527Z,8.85
2023-05-14T17:16:00.935Z,6.45
2023-05-14T17:18:27.884Z,6.13
2023-05-14T17:20:54.684Z,7.43
2023-05-14T17:25:48.187Z,6.65
2023-05-14T17:30:41.619Z,5.47
2023-05-14T17:35:36.453Z,4.63
2023-05-14T17:38:03.656Z,4.65
2023-05-14T17:40:30.510Z,5.68
2023-05-14T17:42:57.284Z,4.32
2023-05-14T17:47:51.418Z,6.18
2023-05-14T17:50:18.912Z,4.93
2023-05-14T17:52:46.199Z,5.15
2023-05-14T17:55:13.174Z,6.75
2023-05-14T17:57:40.156Z,5.43
2023-05-14T18:00:08.182Z,5.55
2023-05-14T18:02:35.103Z,7.05
2023-05-14T18:05:02.861Z,5.75
2023-05-14T18:07:30.732Z,5.05
2023-05-14T18:09:58.120Z,6.90
2023-05-14T18:12:27.688Z,5.65
2023-05-14T18:14:54.605Z,5.55
2023-05-14T18:17:21.597Z,6.28
2023-05-14T18:19:48.450Z,5.93
2023-05-14T18:22:15.742Z,6.43
2023-05-14T18:24:44.276Z,5.15
2023-05-14T18:27:11.141Z,7.35
2023-05-14T18:29:37.957Z,5.95
2023-05-14T18:32:05.204Z,10.52
2023-05-14T18:34:31.907Z,7.75
2023-05-14T18:39:25.544Z,5.70
2023-05-14T18:41:52.380Z,7.20
2023-05-14T18:44:19.169Z,6.57
2023-05-14T18:46:46.170Z,7.15
2023-05-14T18:49:13.010Z,6.30
2023-05-14T18:54:06.630Z,5.60
2023-05-14T18:56:33.959Z,5.70
2023-05-14T18:59:00.727Z,6.03
2023-05-14T19:01:28.145Z,7.18
2023-05-14T19:03:55.230Z,6.78
2023-05-14T19:06:22.205Z,6.95
2023-05-14T19:08:48.953Z,6.97
2023-05-14T19:13:46.613Z,6.80
2023-05-14T19:16:13.770Z,7.25
2023-05-14T19:18:41.179Z,6.38
2023-05-14T19:21:08.195Z,7.20
2023-05-14T19:23:34.982Z,6.90
2023-05-14T19:26:01.739Z,6.68
2023-05-14T19:30:57.193Z,6.68
2023-05-14T19:33:24.296Z,8.52
2023-05-14T19:35:51.290Z,9.20
2023-05-14T19:38:19.691Z,10.32
2023-05-14T19:40:46.422Z,8.05
2023-05-14T19:45:42.636Z,8.30
2023-05-14T19:48:09.524Z,9.30
2023-05-14T19:50:37.170Z,11.05
2023-05-14T19:53:04.580Z,9.90
2023-05-14T19:55:31.344Z,8.75
2023-05-14T19:57:58.159Z,7.80
2023-05-14T20:00:25.069Z,6.85
2023-05-14T20:02:52.006Z,8.73
2023-05-14T20:05:18.942Z,6.53
2023-05-14T20:07:48.870Z,6.82
2023-05-14T20:10:15.632Z,9.20
2023-05-14T20:12:42.363Z,8.05
2023-05-14T20:17:37.283Z,9.40
2023-05-14T20:20:04.963Z,7.95
2023-05-14T20:22:31.758Z,8.23
2023-05-14T20:24:58.705Z,10.27
2023-05-14T20:27:25.765Z,8.80
2023-05-14T20:29:54.055Z,9.38
2023-05-14T20:32:24.920Z,8.68
2023-05-14T20:34:52.115Z,8.80
2023-05-14T20:37:19.835Z,8.50
2023-05-14T20:39:47.025Z,9.85
2023-05-14T20:42:13.750Z,10.70
2023-05-14T20:47:07.208Z,9.50
2023-05-14T20:49:33.960Z,9.63
2023-05-14T20:54:27.435Z,9.07
2023-05-14T20:59:20.789Z,9.60
2023-05-14T21:04:15.286Z,8.90
2023-05-14T21:06:42.254Z,9.02
2023-05-14T21:11:35.774Z,9.82
2023-05-14T21:14:02.564Z,10.07
2023-05-14T21:16:31.224Z,8.43
2023-05-14T21:18:58.149Z,8.13
2023-05-14T21:21:25.911Z,8.10
2023-05-14T21:23:52.633Z,10.00
2023-05-14T21:28:48.932Z,7.80
2023-05-14T21:31:15.736Z,7.93
2023-05-14T21:36:09.806Z,9.18
2023-05-14T21:38:36.804Z,8.75
2023-05-14T21:41:03.829Z,9.60
2023-05-14T21:43:30.969Z,8.00
2023-05-14T21:45:57.745Z,8.10
2023-05-14T21:48:24.704Z,9.70
2023-05-14T21:50:51.590Z,8.80
2023-05-14T21:53:18.420Z,8.15
2023-05-14T21:55:45.289Z,8.95
2023-05-14T21:58:12.055Z,10.95
2023-05-14T22:03:05.872Z,12.73
2023-05-14T22:05:32.770Z,9.13
2023-05-14T22:07:59.517Z,9.27
2023-05-14T22:12:52.948Z,8.25
2023-05-14T22:15:19.721Z,10.90
2023-05-14T22:20:14.260Z,10.27
2023-05-14T22:22:41.032Z,11.80
2023-05-14T22:27:34.774Z,11.30
2023-05-14T22:32:28.096Z,12.00
2023-05-14T22:37:21.923Z,12.77
2023-05-14T22:42:15.582Z,11.35
2023-05-14T22:44:42.275Z,14.65
2023-05-14T22:49:35.820Z,14.38
2023-05-14T22:52:03.213Z,15.30
2023-05-14T22:54:29.961Z,15.52
2023-05-14T22:59:23.839Z,16.48
2023-05-14T23:01:51.042Z,13.48
2023-05-14T23:04:17.920Z,15.05
2023-05-14T23:06:44.826Z,16.55
2023-05-14T23:09:11.766Z,16.83
2023-05-14T23:11:38.588Z,15.00
2023-05-14T23:14:05.369Z,18.80
2023-05-14T23:18:59.119Z,16.13
2023-05-14T23:21:26.041Z,14.98
2023-05-14T23:23:52.857Z,16.17
2023-05-14T23:28:47.406Z,18.77
2023-05-14T23:31:14.352Z,20.08
2023-05-14T23:33:41.112Z,18.65
2023-05-14T23:38:34.885Z,18.08
2023-05-14T23:41:01.639Z,18.55
2023-05-14T23:45:55.157Z,18.73
2023-05-14T23:48:21.966Z,17.17
2023-05-14T23:53:15.338Z,17.88
2023-05-14T23:58:08.960Z,18.17
